sensor_id;sensor_type;location;lat;lon;timestamp;pressure;altitude;pressure_sealevel;temperature;humidity
46690;BME280;32423;45.398;10.874;2022-11-23T00:00:47;99059.50;;;10.53;69.31
46690;BME280;32423;45.398;10.874;2022-11-23T00:03:32;99062.56;;;10.52;69.62
46690;BME280;32423;45.398;10.874;2022-11-23T00:06:17;99066.16;;;10.56;69.10
46690;BME280;32423;45.398;10.874;2022-11-23T00:09:03;99075.44;;;10.55;69.02
46690;BME280;32423;45.398;10.874;2022-11-23T00:11:48;99071.50;;;10.52;69.21
46690;BME280;32423;45.398;10.874;2022-11-23T00:14:32;99088.19;;;10.51;69.15
46690;BME280;32423;45.398;10.874;2022-11-23T00:17:17;99095.16;;;10.52;69.34
46690;BME280;32423;45.398;10.874;2022-11-23T00:20:02;99094.53;;;10.58;69.03
46690;BME280;32423;45.398;10.874;2022-11-23T00:22:47;99087.38;;;10.50;68.97
46690;BME280;32423;45.398;10.874;2022-11-23T00:25:33;99097.03;;;10.48;69.60
46690;BME280;32423;45.398;10.874;2022-11-23T00:28:18;99097.88;;;10.52;69.24
46690;BME280;32423;45.398;10.874;2022-11-23T00:31:11;99100.31;;;10.57;69.63
46690;BME280;32423;45.398;10.874;2022-11-23T00:33:57;99091.28;;;10.68;68.92
46690;BME280;32423;45.398;10.874;2022-11-23T00:36:41;99092.63;;;10.59;69.28
46690;BME280;32423;45.398;10.874;2022-11-23T00:39:26;99098.81;;;10.75;68.76
46690;BME280;32423;45.398;10.874;2022-11-23T00:42:11;99098.06;;;10.59;68.57
46690;BME280;32423;45.398;10.874;2022-11-23T00:44:56;99106.47;;;10.54;68.38
46690;BME280;32423;45.398;10.874;2022-11-23T00:47:41;99097.81;;;10.48;68.52
46690;BME280;32423;45.398;10.874;2022-11-23T00:50:26;99105.63;;;10.50;69.08
46690;BME280;32423;45.398;10.874;2022-11-23T00:53:10;99099.91;;;10.55;68.62
46690;BME280;32423;45.398;10.874;2022-11-23T00:55:55;99103.03;;;10.57;67.97
46690;BME280;32423;45.398;10.874;2022-11-23T00:58:40;99113.06;;;10.53;68.11
46690;BME280;32423;45.398;10.874;2022-11-23T01:01:29;99114.88;;;10.64;68.26
46690;BME280;32423;45.398;10.874;2022-11-23T01:04:17;99110.72;;;10.51;68.13
46690;BME280;32423;45.398;10.874;2022-11-23T01:07:01;99120.69;;;10.47;68.75
46690;BME280;32423;45.398;10.874;2022-11-23T01:09:46;99112.72;;;10.39;68.78
46690;BME280;32423;45.398;10.874;2022-11-23T01:12:31;99128.06;;;10.31;68.97
46690;BME280;32423;45.398;10.874;2022-11-23T01:15:15;99133.06;;;10.29;69.00
46690;BME280;32423;45.398;10.874;2022-11-23T01:18:00;99136.59;;;10.29;69.38
46690;BME280;32423;45.398;10.874;2022-11-23T01:20:45;99135.00;;;10.28;69.02
46690;BME280;32423;45.398;10.874;2022-11-23T01:23:30;99140.19;;;10.18;68.65
46690;BME280;32423;45.398;10.874;2022-11-23T01:26:15;99142.25;;;10.09;69.16
46690;BME280;32423;45.398;10.874;2022-11-23T01:29:00;99141.38;;;10.05;69.20
46690;BME280;32423;45.398;10.874;2022-11-23T01:31:45;99147.41;;;9.98;69.32
46690;BME280;32423;45.398;10.874;2022-11-23T01:34:31;99152.84;;;9.98;69.38
46690;BME280;32423;45.398;10.874;2022-11-23T01:37:16;99152.06;;;9.98;69.18
46690;BME280;32423;45.398;10.874;2022-11-23T01:40:02;99175.28;;;9.95;69.05
46690;BME280;32423;45.398;10.874;2022-11-23T01:48:39;99178.63;;;10.04;67.15
46690;BME280;32423;45.398;10.874;2022-11-23T01:51:29;99175.78;;;10.01;67.09
46690;BME280;32423;45.398;10.874;2022-11-23T01:54:29;99189.19;;;9.94;68.17
46690;BME280;32423;45.398;10.874;2022-11-23T01:57:34;99193.41;;;10.07;67.56
46690;BME280;32423;45.398;10.874;2022-11-23T02:00:21;99186.53;;;9.81;67.02
46690;BME280;32423;45.398;10.874;2022-11-23T02:03:07;99195.38;;;9.78;68.42
46690;BME280;32423;45.398;10.874;2022-11-23T02:05:55;99203.44;;;9.75;68.76
46690;BME280;32423;45.398;10.874;2022-11-23T02:08:46;99202.66;;;9.74;68.41
46690;BME280;32423;45.398;10.874;2022-11-23T02:11:31;99212.00;;;9.77;67.27
46690;BME280;32423;45.398;10.874;2022-11-23T02:14:16;99215.50;;;9.77;67.76
46690;BME280;32423;45.398;10.874;2022-11-23T02:17:01;99218.56;;;9.76;67.47
46690;BME280;32423;45.398;10.874;2022-11-23T02:19:53;99217.75;;;9.60;69.07
46690;BME280;32423;45.398;10.874;2022-11-23T02:28:49;99232.88;;;9.88;67.66
46690;BME280;32423;45.398;10.874;2022-11-23T02:31:36;99233.56;;;9.85;66.84
46690;BME280;32423;45.398;10.874;2022-11-23T02:34:20;99230.53;;;9.59;66.06
46690;BME280;32423;45.398;10.874;2022-11-23T02:37:07;99237.56;;;9.76;66.40
46690;BME280;32423;45.398;10.874;2022-11-23T02:39:53;99239.94;;;10.05;67.05
46690;BME280;32423;45.398;10.874;2022-11-23T02:42:40;99236.25;;;10.13;66.85
46690;BME280;32423;45.398;10.874;2022-11-23T02:48:12;99248.91;;;9.66;68.13
46690;BME280;32423;45.398;10.874;2022-11-23T02:50:57;99245.38;;;10.05;67.74
46690;BME280;32423;45.398;10.874;2022-11-23T02:53:41;99243.66;;;10.01;66.78
46690;BME280;32423;45.398;10.874;2022-11-23T02:56:28;99249.47;;;9.31;65.90
46690;BME280;32423;45.398;10.874;2022-11-23T02:59:13;99255.53;;;9.53;66.74
46690;BME280;32423;45.398;10.874;2022-11-23T03:02:01;99247.25;;;9.61;66.60
46690;BME280;32423;45.398;10.874;2022-11-23T03:04:48;99251.28;;;9.39;68.18
46690;BME280;32423;45.398;10.874;2022-11-23T03:07:36;99248.19;;;9.53;67.75
46690;BME280;32423;45.398;10.874;2022-11-23T03:10:21;99254.63;;;9.49;68.29
46690;BME280;32423;45.398;10.874;2022-11-23T03:13:09;99263.06;;;9.19;67.47
46690;BME280;32423;45.398;10.874;2022-11-23T03:15:56;99264.13;;;9.55;68.65
46690;BME280;32423;45.398;10.874;2022-11-23T03:18:44;99270.50;;;9.34;68.42
46690;BME280;32423;45.398;10.874;2022-11-23T03:21:29;99269.34;;;9.35;66.50
46690;BME280;32423;45.398;10.874;2022-11-23T03:24:13;99274.53;;;9.40;66.31
46690;BME280;32423;45.398;10.874;2022-11-23T03:27:00;99275.94;;;9.34;66.27
46690;BME280;32423;45.398;10.874;2022-11-23T03:29:46;99276.28;;;8.96;66.57
46690;BME280;32423;45.398;10.874;2022-11-23T03:32:36;99268.81;;;9.06;68.41
46690;BME280;32423;45.398;10.874;2022-11-23T03:35:21;99275.00;;;9.30;66.99
46690;BME280;32423;45.398;10.874;2022-11-23T03:38:33;99275.94;;;8.74;64.26
46690;BME280;32423;45.398;10.874;2022-11-23T03:41:19;99267.59;;;8.67;67.38
46690;BME280;32423;45.398;10.874;2022-11-23T03:44:09;99278.19;;;8.84;66.16
46690;BME280;32423;45.398;10.874;2022-11-23T03:46:54;99267.81;;;8.74;67.02
46690;BME280;32423;45.398;10.874;2022-11-23T03:49:39;99272.78;;;8.72;67.79
46690;BME280;32423;45.398;10.874;2022-11-23T03:52:24;99269.97;;;8.92;65.61
46690;BME280;32423;45.398;10.874;2022-11-23T03:55:09;99269.16;;;9.16;66.73
46690;BME280;32423;45.398;10.874;2022-11-23T03:57:54;99279.00;;;9.09;65.79
46690;BME280;32423;45.398;10.874;2022-11-23T04:00:43;99274.50;;;8.88;66.32
46690;BME280;32423;45.398;10.874;2022-11-23T04:03:30;99273.34;;;9.01;66.28
46690;BME280;32423;45.398;10.874;2022-11-23T04:06:29;99269.84;;;8.65;65.67
46690;BME280;32423;45.398;10.874;2022-11-23T04:09:27;99273.75;;;8.31;67.27
46690;BME280;32423;45.398;10.874;2022-11-23T04:12:23;99275.25;;;8.52;67.82
46690;BME280;32423;45.398;10.874;2022-11-23T04:15:10;99270.72;;;8.44;65.63
46690;BME280;32423;45.398;10.874;2022-11-23T04:17:55;99282.47;;;8.48;67.26
46690;BME280;32423;45.398;10.874;2022-11-23T04:20:41;99275.66;;;8.30;66.01
46690;BME280;32423;45.398;10.874;2022-11-23T04:23:26;99276.75;;;8.17;67.73
46690;BME280;32423;45.398;10.874;2022-11-23T04:26:11;99280.66;;;8.40;67.29
46690;BME280;32423;45.398;10.874;2022-11-23T04:28:59;99271.19;;;8.13;66.55
46690;BME280;32423;45.398;10.874;2022-11-23T04:31:45;99277.56;;;7.97;67.21
46690;BME280;32423;45.398;10.874;2022-11-23T04:34:32;99278.16;;;8.02;67.09
46690;BME280;32423;45.398;10.874;2022-11-23T04:37:20;99278.91;;;7.91;67.79
46690;BME280;32423;45.398;10.874;2022-11-23T04:40:05;99284.41;;;7.82;67.75
46690;BME280;32423;45.398;10.874;2022-11-23T04:43:06;99284.84;;;7.84;67.17
46690;BME280;32423;45.398;10.874;2022-11-23T04:45:53;99288.13;;;7.90;66.58
46690;BME280;32423;45.398;10.874;2022-11-23T04:48:43;99286.00;;;7.95;66.86
46690;BME280;32423;45.398;10.874;2022-11-23T04:51:28;99292.16;;;7.84;67.21
46690;BME280;32423;45.398;10.874;2022-11-23T04:54:13;99295.34;;;7.86;67.71
46690;BME280;32423;45.398;10.874;2022-11-23T04:57:06;99294.34;;;7.90;68.17
46690;BME280;32423;45.398;10.874;2022-11-23T04:59:51;99299.97;;;7.85;68.13
46690;BME280;32423;45.398;10.874;2022-11-23T05:02:36;99307.78;;;7.99;67.73
46690;BME280;32423;45.398;10.874;2022-11-23T05:05:37;99307.88;;;7.90;67.44
46690;BME280;32423;45.398;10.874;2022-11-23T05:08:22;99306.59;;;8.08;67.71
46690;BME280;32423;45.398;10.874;2022-11-23T05:11:27;99316.91;;;7.94;66.31
46690;BME280;32423;45.398;10.874;2022-11-23T05:14:15;99312.19;;;7.70;67.35
46690;BME280;32423;45.398;10.874;2022-11-23T05:16:59;99313.09;;;7.74;66.64
46690;BME280;32423;45.398;10.874;2022-11-23T05:19:44;99308.88;;;7.86;66.63
46690;BME280;32423;45.398;10.874;2022-11-23T05:22:30;99304.50;;;7.93;66.54
46690;BME280;32423;45.398;10.874;2022-11-23T05:25:16;99308.47;;;7.96;67.49
46690;BME280;32423;45.398;10.874;2022-11-23T05:28:03;99317.13;;;8.22;67.59
46690;BME280;32423;45.398;10.874;2022-11-23T05:30:48;99312.47;;;8.31;65.66
46690;BME280;32423;45.398;10.874;2022-11-23T05:33:33;99318.81;;;8.47;65.99
46690;BME280;32423;45.398;10.874;2022-11-23T05:36:20;99311.38;;;8.24;64.83
46690;BME280;32423;45.398;10.874;2022-11-23T05:39:05;99311.59;;;7.98;64.93
46690;BME280;32423;45.398;10.874;2022-11-23T05:41:50;99302.00;;;7.67;66.02
46690;BME280;32423;45.398;10.874;2022-11-23T05:44:47;99304.91;;;7.62;66.56
46690;BME280;32423;45.398;10.874;2022-11-23T05:47:38;99310.38;;;7.74;67.92
46690;BME280;32423;45.398;10.874;2022-11-23T05:50:27;99312.31;;;7.74;66.58
46690;BME280;32423;45.398;10.874;2022-11-23T05:53:32;99320.28;;;7.70;65.55
46690;BME280;32423;45.398;10.874;2022-11-23T05:56:25;99314.28;;;7.65;67.12
46690;BME280;32423;45.398;10.874;2022-11-23T05:59:22;99315.00;;;7.53;67.47
46690;BME280;32423;45.398;10.874;2022-11-23T06:02:14;99323.44;;;7.52;66.37
46690;BME280;32423;45.398;10.874;2022-11-23T06:04:59;99320.50;;;7.65;66.61
46690;BME280;32423;45.398;10.874;2022-11-23T06:07:54;99325.34;;;7.72;66.02
46690;BME280;32423;45.398;10.874;2022-11-23T06:10:44;99323.03;;;7.83;66.70
46690;BME280;32423;45.398;10.874;2022-11-23T06:13:29;99340.22;;;7.87;67.81
46690;BME280;32423;45.398;10.874;2022-11-23T06:16:14;99344.88;;;7.98;67.86
46690;BME280;32423;45.398;10.874;2022-11-23T06:19:10;99343.47;;;8.13;68.25
46690;BME280;32423;45.398;10.874;2022-11-23T06:21:59;99348.88;;;8.01;65.58
46690;BME280;32423;45.398;10.874;2022-11-23T06:24:47;99354.00;;;7.94;66.01
46690;BME280;32423;45.398;10.874;2022-11-23T06:27:58;99348.88;;;7.80;65.54
46690;BME280;32423;45.398;10.874;2022-11-23T06:30:48;99357.53;;;7.44;66.52
46690;BME280;32423;45.398;10.874;2022-11-23T06:33:33;99357.78;;;7.30;67.08
46690;BME280;32423;45.398;10.874;2022-11-23T06:36:19;99371.94;;;7.27;68.03
46690;BME280;32423;45.398;10.874;2022-11-23T06:39:07;99369.69;;;7.59;67.23
46690;BME280;32423;45.398;10.874;2022-11-23T06:41:52;99372.19;;;7.43;67.60
46690;BME280;32423;45.398;10.874;2022-11-23T06:44:37;99382.34;;;7.46;67.75
46690;BME280;32423;45.398;10.874;2022-11-23T06:47:21;99383.81;;;7.64;68.00
46690;BME280;32423;45.398;10.874;2022-11-23T06:50:07;99391.03;;;7.81;67.68
46690;BME280;32423;45.398;10.874;2022-11-23T06:52:56;99394.72;;;7.56;67.70
46690;BME280;32423;45.398;10.874;2022-11-23T06:55:50;99401.59;;;7.45;67.74
46690;BME280;32423;45.398;10.874;2022-11-23T06:58:37;99410.69;;;7.40;67.93
46690;BME280;32423;45.398;10.874;2022-11-23T07:01:27;99408.19;;;7.35;69.06
46690;BME280;32423;45.398;10.874;2022-11-23T07:04:18;99407.69;;;7.33;69.95
46690;BME280;32423;45.398;10.874;2022-11-23T07:07:07;99420.22;;;7.46;70.03
46690;BME280;32423;45.398;10.874;2022-11-23T07:10:01;99435.78;;;7.49;70.83
46690;BME280;32423;45.398;10.874;2022-11-23T07:13:05;99444.38;;;7.51;71.52
46690;BME280;32423;45.398;10.874;2022-11-23T07:15:50;99447.53;;;7.53;71.41
46690;BME280;32423;45.398;10.874;2022-11-23T07:18:35;99447.34;;;7.58;71.07
46690;BME280;32423;45.398;10.874;2022-11-23T07:21:21;99458.66;;;7.60;71.30
46690;BME280;32423;45.398;10.874;2022-11-23T07:24:07;99455.88;;;7.69;70.92
46690;BME280;32423;45.398;10.874;2022-11-23T07:26:52;99450.78;;;7.76;70.76
46690;BME280;32423;45.398;10.874;2022-11-23T07:29:37;99455.94;;;7.90;71.23
46690;BME280;32423;45.398;10.874;2022-11-23T07:32:21;99461.41;;;7.81;71.06
46690;BME280;32423;45.398;10.874;2022-11-23T07:35:07;99478.09;;;7.83;71.78
46690;BME280;32423;45.398;10.874;2022-11-23T07:37:55;99473.28;;;7.89;71.72
46690;BME280;32423;45.398;10.874;2022-11-23T07:40:40;99473.88;;;7.94;71.66
46690;BME280;32423;45.398;10.874;2022-11-23T07:43:33;99477.88;;;7.97;71.90
46690;BME280;32423;45.398;10.874;2022-11-23T07:46:20;99481.50;;;8.01;72.30
46690;BME280;32423;45.398;10.874;2022-11-23T07:49:05;99485.13;;;8.05;72.60
46690;BME280;32423;45.398;10.874;2022-11-23T07:51:50;99488.31;;;8.07;72.70
46690;BME280;32423;45.398;10.874;2022-11-23T07:54:37;99490.03;;;8.11;73.24
46690;BME280;32423;45.398;10.874;2022-11-23T07:57:21;99495.84;;;8.22;73.21
46690;BME280;32423;45.398;10.874;2022-11-23T08:00:07;99493.22;;;8.34;73.14
46690;BME280;32423;45.398;10.874;2022-11-23T08:02:57;99501.03;;;8.36;73.03
46690;BME280;32423;45.398;10.874;2022-11-23T08:05:42;99496.53;;;8.40;73.25
46690;BME280;32423;45.398;10.874;2022-11-23T08:08:27;99504.59;;;8.48;73.88
46690;BME280;32423;45.398;10.874;2022-11-23T08:11:12;99508.25;;;8.52;73.63
46690;BME280;32423;45.398;10.874;2022-11-23T08:14:00;99509.81;;;8.53;74.01
46690;BME280;32423;45.398;10.874;2022-11-23T08:16:47;99510.41;;;8.59;74.02
46690;BME280;32423;45.398;10.874;2022-11-23T08:19:33;99518.34;;;8.64;73.99
46690;BME280;32423;45.398;10.874;2022-11-23T08:22:17;99527.06;;;8.70;74.31
46690;BME280;32423;45.398;10.874;2022-11-23T08:25:02;99523.22;;;8.71;74.14
46690;BME280;32423;45.398;10.874;2022-11-23T08:27:47;99522.22;;;8.75;74.24
46690;BME280;32423;45.398;10.874;2022-11-23T08:30:33;99531.06;;;8.84;73.73
46690;BME280;32423;45.398;10.874;2022-11-23T08:33:18;99534.84;;;8.92;73.82
46690;BME280;32423;45.398;10.874;2022-11-23T08:36:04;99535.88;;;8.99;74.03
46690;BME280;32423;45.398;10.874;2022-11-23T08:38:50;99531.53;;;9.07;73.64
46690;BME280;32423;45.398;10.874;2022-11-23T08:41:36;99532.00;;;9.09;73.25
46690;BME280;32423;45.398;10.874;2022-11-23T08:44:24;99534.03;;;9.12;73.34
46690;BME280;32423;45.398;10.874;2022-11-23T08:47:09;99537.31;;;9.18;73.23
46690;BME280;32423;45.398;10.874;2022-11-23T08:49:53;99537.09;;;9.23;73.23
46690;BME280;32423;45.398;10.874;2022-11-23T08:52:39;99541.56;;;9.39;73.34
46690;BME280;32423;45.398;10.874;2022-11-23T08:55:27;99544.97;;;9.49;73.41
46690;BME280;32423;45.398;10.874;2022-11-23T08:58:13;99546.47;;;9.58;73.14
46690;BME280;32423;45.398;10.874;2022-11-23T09:00:58;99548.63;;;9.65;72.88
46690;BME280;32423;45.398;10.874;2022-11-23T09:03:46;99550.09;;;9.74;72.21
46690;BME280;32423;45.398;10.874;2022-11-23T09:06:34;99544.78;;;9.78;72.08
46690;BME280;32423;45.398;10.874;2022-11-23T09:09:19;99545.25;;;9.80;71.71
46690;BME280;32423;45.398;10.874;2022-11-23T09:12:04;99550.88;;;9.87;71.45
46690;BME280;32423;45.398;10.874;2022-11-23T09:14:51;99552.16;;;9.90;71.39
46690;BME280;32423;45.398;10.874;2022-11-23T09:17:36;99546.25;;;9.87;70.98
46690;BME280;32423;45.398;10.874;2022-11-23T09:20:21;99548.19;;;9.99;70.82
46690;BME280;32423;45.398;10.874;2022-11-23T09:23:07;99540.16;;;10.03;70.25
46690;BME280;32423;45.398;10.874;2022-11-23T09:25:53;99548.31;;;10.15;70.23
46690;BME280;32423;45.398;10.874;2022-11-23T09:28:37;99540.72;;;10.08;69.76
46690;BME280;32423;45.398;10.874;2022-11-23T09:31:22;99547.72;;;10.09;68.79
46690;BME280;32423;45.398;10.874;2022-11-23T09:34:07;99554.31;;;10.20;68.96
46690;BME280;32423;45.398;10.874;2022-11-23T09:36:55;99552.50;;;10.24;68.60
46690;BME280;32423;45.398;10.874;2022-11-23T09:39:40;99551.81;;;10.27;68.12
46690;BME280;32423;45.398;10.874;2022-11-23T09:42:44;99547.19;;;10.28;66.44
46690;BME280;32423;45.398;10.874;2022-11-23T09:45:45;99547.28;;;10.32;66.35
46690;BME280;32423;45.398;10.874;2022-11-23T09:48:42;99547.50;;;10.39;66.79
46690;BME280;32423;45.398;10.874;2022-11-23T09:51:30;99549.97;;;10.44;67.25
46690;BME280;32423;45.398;10.874;2022-11-23T09:54:24;99556.06;;;10.53;66.73
46690;BME280;32423;45.398;10.874;2022-11-23T09:57:16;99542.72;;;10.60;66.04
46690;BME280;32423;45.398;10.874;2022-11-23T10:02:49;99542.59;;;10.56;64.95
46690;BME280;32423;45.398;10.874;2022-11-23T10:05:37;99542.91;;;10.67;65.63
46690;BME280;32423;45.398;10.874;2022-11-23T10:08:51;99535.41;;;10.76;65.25
46690;BME280;32423;45.398;10.874;2022-11-23T10:12:00;99543.31;;;10.81;65.06
46690;BME280;32423;45.398;10.874;2022-11-23T10:15:11;99543.41;;;10.85;64.46
46690;BME280;32423;45.398;10.874;2022-11-23T10:21:19;99544.88;;;10.82;64.02
46690;BME280;32423;45.398;10.874;2022-11-23T10:24:18;99546.09;;;10.97;63.51
46690;BME280;32423;45.398;10.874;2022-11-23T10:27:15;99533.72;;;10.99;62.63
46690;BME280;32423;45.398;10.874;2022-11-23T10:30:00;99533.81;;;11.03;60.99
46690;BME280;32423;45.398;10.874;2022-11-23T10:32:59;99540.69;;;11.12;60.20
46690;BME280;32423;45.398;10.874;2022-11-23T10:35:46;99535.91;;;11.22;59.40
46690;BME280;32423;45.398;10.874;2022-11-23T10:38:30;99534.44;;;11.40;58.65
46690;BME280;32423;45.398;10.874;2022-11-23T10:41:16;99542.16;;;11.53;58.07
46690;BME280;32423;45.398;10.874;2022-11-23T10:44:05;99546.47;;;11.70;56.76
46690;BME280;32423;45.398;10.874;2022-11-23T10:46:55;99544.47;;;11.67;57.41
46690;BME280;32423;45.398;10.874;2022-11-23T10:49:56;99536.88;;;11.73;57.02
46690;BME280;32423;45.398;10.874;2022-11-23T10:52:49;99532.72;;;11.79;57.33
46690;BME280;32423;45.398;10.874;2022-11-23T10:55:56;99534.41;;;11.83;56.78
46690;BME280;32423;45.398;10.874;2022-11-23T10:58:44;99528.84;;;11.95;57.52
46690;BME280;32423;45.398;10.874;2022-11-23T11:01:30;99532.56;;;11.87;57.23
46690;BME280;32423;45.398;10.874;2022-11-23T11:04:21;99530.97;;;11.86;57.32
46690;BME280;32423;45.398;10.874;2022-11-23T11:07:28;99534.16;;;11.88;57.15
46690;BME280;32423;45.398;10.874;2022-11-23T11:13:39;99542.91;;;12.13;58.16
46690;BME280;32423;45.398;10.874;2022-11-23T11:16:29;99533.13;;;12.12;56.43
46690;BME280;32423;45.398;10.874;2022-11-23T11:19:34;99542.28;;;12.93;61.07
46690;BME280;32423;45.398;10.874;2022-11-23T11:22:33;99535.25;;;13.31;55.64
46690;BME280;32423;45.398;10.874;2022-11-23T11:28:23;99529.19;;;13.63;55.54
46690;BME280;32423;45.398;10.874;2022-11-23T11:34:44;99519.03;;;13.87;51.36
46690;BME280;32423;45.398;10.874;2022-11-23T11:40:28;99524.78;;;13.55;50.16
46690;BME280;32423;45.398;10.874;2022-11-23T11:46:30;99530.13;;;14.20;52.96
46690;BME280;32423;45.398;10.874;2022-11-23T11:49:22;99526.00;;;13.81;51.26
46690;BME280;32423;45.398;10.874;2022-11-23T11:52:19;99527.81;;;13.50;51.46
46690;BME280;32423;45.398;10.874;2022-11-23T11:55:22;99527.00;;;13.27;51.76
46690;BME280;32423;45.398;10.874;2022-11-23T11:58:10;99526.13;;;13.23;52.63
46690;BME280;32423;45.398;10.874;2022-11-23T12:01:17;99524.84;;;13.17;53.53
46690;BME280;32423;45.398;10.874;2022-11-23T12:04:11;99527.88;;;13.12;52.90
46690;BME280;32423;45.398;10.874;2022-11-23T12:07:09;99519.25;;;13.10;52.11
46690;BME280;32423;45.398;10.874;2022-11-23T12:10:20;99523.41;;;13.04;51.67
46690;BME280;32423;45.398;10.874;2022-11-23T12:13:17;99521.09;;;13.06;51.65
46690;BME280;32423;45.398;10.874;2022-11-23T12:16:19;99516.44;;;13.06;51.40
46690;BME280;32423;45.398;10.874;2022-11-23T12:19:18;99511.50;;;13.12;49.77
46690;BME280;32423;45.398;10.874;2022-11-23T12:25:35;99509.31;;;13.21;49.44
46690;BME280;32423;45.398;10.874;2022-11-23T12:31:41;99502.97;;;13.36;48.72
46690;BME280;32423;45.398;10.874;2022-11-23T12:35:01;99497.94;;;13.38;48.75
46690;BME280;32423;45.398;10.874;2022-11-23T12:41:21;99503.28;;;13.54;52.67
46690;BME280;32423;45.398;10.874;2022-11-23T12:47:47;99497.78;;;13.77;63.23
46690;BME280;32423;45.398;10.874;2022-11-23T12:50:42;99498.22;;;13.79;63.42
46690;BME280;32423;45.398;10.874;2022-11-23T12:54:08;99501.88;;;13.86;62.60
46690;BME280;32423;45.398;10.874;2022-11-23T12:57:27;99498.75;;;13.88;62.76
46690;BME280;32423;45.398;10.874;2022-11-23T13:00:17;99495.66;;;13.89;63.17
46690;BME280;32423;45.398;10.874;2022-11-23T13:09:53;99504.53;;;13.83;63.46
46690;BME280;32423;45.398;10.874;2022-11-23T13:21:48;99502.50;;;13.76;63.09
46690;BME280;32423;45.398;10.874;2022-11-23T13:24:59;99509.59;;;13.81;64.47
46690;BME280;32423;45.398;10.874;2022-11-23T13:30:35;99512.69;;;13.79;63.65
46690;BME280;32423;45.398;10.874;2022-11-23T13:33:26;99512.56;;;13.72;64.44
46690;BME280;32423;45.398;10.874;2022-11-23T13:42:42;99508.69;;;13.73;63.99
46690;BME280;32423;45.398;10.874;2022-11-23T13:45:30;99509.47;;;13.74;63.43
46690;BME280;32423;45.398;10.874;2022-11-23T13:48:18;99514.38;;;13.87;63.93
46690;BME280;32423;45.398;10.874;2022-11-23T13:51:03;99519.72;;;13.80;63.71
46690;BME280;32423;45.398;10.874;2022-11-23T13:54:03;99515.09;;;13.84;63.38
46690;BME280;32423;45.398;10.874;2022-11-23T13:56:58;99515.91;;;13.85;63.32
46690;BME280;32423;45.398;10.874;2022-11-23T13:59:45;99513.69;;;13.94;63.27
46690;BME280;32423;45.398;10.874;2022-11-23T14:02:30;99515.69;;;13.97;62.74
46690;BME280;32423;45.398;10.874;2022-11-23T14:08:32;99517.28;;;13.98;62.71
46690;BME280;32423;45.398;10.874;2022-11-23T14:11:21;99520.84;;;14.02;62.43
46690;BME280;32423;45.398;10.874;2022-11-23T14:14:16;99518.53;;;14.04;62.72
46690;BME280;32423;45.398;10.874;2022-11-23T14:34:23;99528.97;;;14.21;63.08
46690;BME280;32423;45.398;10.874;2022-11-23T14:43:03;99534.34;;;14.18;63.28
46690;BME280;32423;45.398;10.874;2022-11-23T14:45:48;99535.09;;;14.14;63.47
46690;BME280;32423;45.398;10.874;2022-11-23T14:48:33;99540.94;;;14.13;63.18
46690;BME280;32423;45.398;10.874;2022-11-23T14:51:22;99545.25;;;14.14;63.38
46690;BME280;32423;45.398;10.874;2022-11-23T14:54:07;99548.28;;;14.09;63.38
46690;BME280;32423;45.398;10.874;2022-11-23T14:56:53;99552.13;;;14.04;63.26
46690;BME280;32423;45.398;10.874;2022-11-23T14:59:40;99547.22;;;13.91;63.32
46690;BME280;32423;45.398;10.874;2022-11-23T15:02:38;99550.69;;;13.88;63.54
46690;BME280;32423;45.398;10.874;2022-11-23T15:05:26;99551.84;;;13.87;64.06
46690;BME280;32423;45.398;10.874;2022-11-23T15:11:10;99559.50;;;13.78;63.48
46690;BME280;32423;45.398;10.874;2022-11-23T15:13:58;99562.16;;;13.74;63.18
46690;BME280;32423;45.398;10.874;2022-11-23T15:16:45;99566.53;;;13.79;63.61
46690;BME280;32423;45.398;10.874;2022-11-23T15:19:30;99568.84;;;13.77;63.11
46690;BME280;32423;45.398;10.874;2022-11-23T15:22:15;99575.88;;;13.78;63.21
46690;BME280;32423;45.398;10.874;2022-11-23T15:25:04;99578.06;;;13.68;62.78
46690;BME280;32423;45.398;10.874;2022-11-23T15:27:51;99579.59;;;13.66;62.73
46690;BME280;32423;45.398;10.874;2022-11-23T15:30:35;99580.22;;;13.56;62.39
46690;BME280;32423;45.398;10.874;2022-11-23T15:33:21;99584.72;;;13.48;62.42
46690;BME280;32423;45.398;10.874;2022-11-23T15:36:06;99590.03;;;13.41;62.39
46690;BME280;32423;45.398;10.874;2022-11-23T15:38:51;99599.31;;;13.37;62.56
46690;BME280;32423;45.398;10.874;2022-11-23T15:41:37;99593.88;;;13.37;62.83
46690;BME280;32423;45.398;10.874;2022-11-23T15:44:23;99594.75;;;13.41;62.47
46690;BME280;32423;45.398;10.874;2022-11-23T15:47:12;99602.16;;;13.40;61.99
46690;BME280;32423;45.398;10.874;2022-11-23T15:50:01;99596.88;;;13.32;62.02
46690;BME280;32423;45.398;10.874;2022-11-23T15:52:46;99609.63;;;13.24;62.15
46690;BME280;32423;45.398;10.874;2022-11-23T15:55:31;99617.66;;;13.17;62.85
46690;BME280;32423;45.398;10.874;2022-11-23T15:58:16;99616.81;;;13.13;62.83
46690;BME280;32423;45.398;10.874;2022-11-23T16:01:03;99620.56;;;13.08;63.10
46690;BME280;32423;45.398;10.874;2022-11-23T16:06:39;99620.69;;;12.96;63.17
46690;BME280;32423;45.398;10.874;2022-11-23T16:09:40;99631.28;;;12.98;63.06
46690;BME280;32423;45.398;10.874;2022-11-23T16:12:30;99629.69;;;12.97;62.91
46690;BME280;32423;45.398;10.874;2022-11-23T16:21:01;99628.81;;;12.93;61.44
46690;BME280;32423;45.398;10.874;2022-11-23T16:23:50;99641.00;;;12.79;61.10
46690;BME280;32423;45.398;10.874;2022-11-23T16:26:37;99640.22;;;12.79;61.28
46690;BME280;32423;45.398;10.874;2022-11-23T16:29:23;99647.34;;;12.83;60.64
46690;BME280;32423;45.398;10.874;2022-11-23T16:32:25;99645.00;;;12.51;61.34
46690;BME280;32423;45.398;10.874;2022-11-23T16:35:14;99648.66;;;12.39;61.63
46690;BME280;32423;45.398;10.874;2022-11-23T16:37:59;99645.94;;;12.08;62.88
46690;BME280;32423;45.398;10.874;2022-11-23T16:40:44;99645.31;;;11.98;63.23
46690;BME280;32423;45.398;10.874;2022-11-23T16:43:29;99639.34;;;12.09;62.85